Weather at Risovoye Airfield

Public forecast

Using degrees Celsius for public forecast. Weather courtesy of forecast.io.

Closest aviation weather report (METAR) to Risovoye Airfield

Closest report is Anapa Vityazevo Airport, 165.4 nm (306.3 km) ESE.

2024/05/25 11:30 (retrieved 20 minutes ago)

URKA 251130Z 09014G19MPS CAVOK 23/10 Q1013 R03/010070 NOSIG RMK QFE756/1008

Closest aviation forecast (TAF) to Risovoye Airfield

Closest forecast is Anapa Vityazevo Airport, 165.4 nm (306.3 km) ESE.

2024/05/25 09:21 (retrieved 2 hours ago)

TAF TAF URKA 250748Z 2509/2609 08012G21MPS 9999 SCT040 TEMPO 2509/2518 08017G25MPS BECMG 2518/2520 07010G16MPS SCT040CB TEMPO 2521/2609 10007G14MPS 6000 -SHRA BKN030CB